Terminal Aerodrome Forecast
Issued by NWS

Home | Current Version | Previous Version | Graphics & Text | Print | Product List | Glossary On
Versions: 1 2 3 4 5 6 7 8 9 10 11 12 13 14 15 16 17 18 19 20
000
FTUS43 KLSX 250500
TAFSUS
TAF
KSUS 250530Z 2506/2606 VRB04KT P6SM FEW060
     FM251100 00000KT 5SM BR SKC
     FM251300 20006KT P6SM SCT250
     FM252300 VRB04KT P6SM SCT250=

USA.gov is the U.S. government's official web portal to all federal, state and local government web resources and services.